Flight Track Log - Related Links

Times and Time Zones

All times are in EDT time to prevent confusion due to time zone crossing. See the N433JM flight status page for this flight to view local times or setup timezone preferences in your user account.

Time Position Orientation Groundspeed Altitude Reporting Facility
EDT Latitude Longitude Course Direction KTS MPH feet Rate Location/Type
Wed 04:30:18 PM 39.1167 -77.6167 322° Northwest 196 226 2,700  Level Potomac TRACON
Wed 04:31:18 PM 39.0833 -77.6667 229° Southwest 181 208 4,000 1,050 Climbing Potomac TRACON
Wed 04:32:18 PM 39.0500 -77.7167 229° Southwest 201 231 4,800 1,100 Climbing Potomac TRACON
Wed 04:33:18 PM 38.9833 -77.7333 191° South 199 229 6,200 1,370 Climbing Potomac TRACON
Wed 04:33:50 PM 38.9669 -77.7514 221° Southwest 205 236 6,900 867 Climbing Washington Center
Wed 04:34:48 PM 38.9061 -77.7764 198° South 238 274 7,500 1,361 Climbing Washington Center
Wed 04:35:49 PM 38.8494 -77.7933 193° South 231 266 9,600 1,587 Climbing Washington Center
Wed 04:36:49 PM 38.8214 -77.8406 233° Southwest 182 209 10,700 1,736 Climbing Washington Center
Wed 04:37:50 PM 38.8225 -77.9019 271° West 177 204 13,100 1,983 Climbing Washington Center
Wed 04:38:50 PM 38.8275 -77.9581 277° West 166 191 14,700 1,729 Climbing Washington Center
Wed 04:39:48 PM 38.8369 -78.0169 282° West 160 184 16,500 1,714 Climbing Washington Center
Wed 04:40:49 PM 38.8400 -78.0731 274° West 160 184 18,100 1,537 Climbing Washington Center
Wed 04:41:49 PM 38.8492 -78.1319 281° West 160 184 19,600 1,450 Climbing Washington Center
Wed 04:42:49 PM 38.8539 -78.1961 275° West 165 190 21,000 1,339 Climbing Washington Center
Wed 04:43:50 PM 38.8464 -78.2544 261° West 171 197 22,300 1,230 Climbing Washington Center
Wed 04:44:51 PM 38.8408 -78.3181 264° West 176 203 23,500 1,220 Climbing Washington Center
Wed 04:45:48 PM 38.8331 -78.3819 261° West 176 203 24,700 1,119 Climbing Washington Center
Wed 04:46:49 PM 38.8233 -78.4481 259° West 181 208 25,700 942 Climbing Washington Center
Wed 04:47:49 PM 38.8175 -78.5144 264° West 181 208 26,600 793 Climbing Washington Center
Wed 04:48:50 PM 38.8075 -78.5806 259° West 181 208 27,300 706 Climbing Washington Center
Wed 04:49:48 PM 38.7975 -78.6494 259° West 191 220 28,000 353 Climbing Washington Center
Wed 04:50:49 PM 38.7892 -78.7292 262° West 204 235 28,000  Level Washington Center
Wed 04:51:50 PM 38.7786 -78.8058 260° West 220 253 28,000  Level Washington Center
Wed 04:52:50 PM 38.7681 -78.8906 261° West 234 269 28,000  Level Washington Center
Wed 04:53:48 PM 38.7575 -78.9728 261° West 239 275 28,000  Level Washington Center
Wed 04:54:48 PM 38.7444 -79.0600 259° West 239 275 28,000  Level Washington Center
Wed 04:55:49 PM 38.7339 -79.1444 261° West 244 281 28,000  Level Washington Center
Wed 04:56:50 PM 38.7225 -79.2453 262° West 249 287 28,000  Level Washington Center
Wed 04:57:49 PM 38.7114 -79.3297 260° West 254 292 28,000  Level Washington Center
Wed 04:58:49 PM 38.6983 -79.4169 259° West 254 292 28,000  Level Washington Center
Wed 04:59:49 PM 38.6872 -79.4989 260° West 254 292 28,000  Level Washington Center
Wed 05:00:50 PM 38.6761 -79.5858 261° West 254 292 28,000  Level Washington Center
Wed 05:01:48 PM 38.6647 -79.6731 261° West 254 292 28,000  Level Washington Center
Wed 05:02:48 PM 38.6536 -79.7575 260° West 254 292 28,000  Level Washington Center
Wed 05:03:49 PM 38.6403 -79.8419 259° West 254 292 28,000  Level Washington Center
Wed 05:04:50 PM 38.6286 -79.9289 260° West 254 292 28,000  Level Washington Center
Wed 05:05:50 PM 38.6153 -80.0131 259° West 254 292 28,000  Level Washington Center
Wed 05:06:49 PM 38.6017 -80.0972 258° West 254 292 28,000  Level Washington Center
Wed 05:09:11 PM 38.5725 -80.2906 259° West 243 280 28,000  Level Indianapolis Center
Wed 05:10:13 PM 38.5606 -80.3753 260° West 242 278 28,000  Level Indianapolis Center
Wed 05:11:15 PM 38.5481 -80.4631 260° West 242 278 28,000  Level Indianapolis Center
Wed 05:12:18 PM 38.5361 -80.5475 260° West 242 278 28,000  Level Indianapolis Center
Wed 05:13:20 PM 38.5239 -80.6303 259° West 241 277 28,000  Level Indianapolis Center
Wed 05:14:22 PM 38.5117 -80.7147 260° West 241 277 28,000  Level Indianapolis Center
Wed 05:15:24 PM 38.4958 -80.8144 259° West 241 277 28,000  Level Indianapolis Center
Wed 05:16:26 PM 38.4842 -80.8958 260° West 240 276 28,000  Level Indianapolis Center
Wed 05:17:28 PM 38.4722 -80.9794 260° West 239 275 28,000  Level Indianapolis Center
Wed 05:18:30 PM 38.4597 -81.0619 259° West 239 275 28,000  Level Indianapolis Center
Wed 05:19:32 PM 38.4475 -81.1464 260° West 239 275 28,000  Level Indianapolis Center
Wed 05:20:34 PM 38.4342 -81.2297 258° West 239 275 28,000  Level Indianapolis Center
Wed 05:21:36 PM 38.4206 -81.3125 258° West 239 275 28,000  Level Indianapolis Center
Wed 05:22:38 PM 38.4047 -81.4133 259° West 239 275 28,000  Level Indianapolis Center
Wed 05:23:41 PM 38.3897 -81.4969 257° West 239 275 28,000  Level Indianapolis Center
Wed 05:24:43 PM 38.3800 -81.5819 262° West 240 276 28,000  Level Indianapolis Center
Wed 05:25:45 PM 38.3678 -81.6653 259° West 239 275 28,000  Level Indianapolis Center
Wed 05:26:47 PM 38.3528 -81.7497 257° West 240 276 28,000  Level Indianapolis Center
Wed 05:27:49 PM 38.3433 -81.8333 262° West 240 276 28,000  Level Indianapolis Center
Wed 05:28:51 PM 38.3428 -81.9164 270° West 237 273 28,000  Level Indianapolis Center
Wed 05:29:53 PM 38.3400 -82.0164 268° West 236 272 28,000 48 Level Indianapolis Center
Wed 05:30:55 PM 38.3358 -82.1008 266° West 236 272 28,100  Climbing Indianapolis Center
Wed 05:31:57 PM 38.3336 -82.1833 268° West 236 272 28,000 -339 Descending Indianapolis Center
Wed 05:32:59 PM 38.3306 -82.2703 267° West 241 277 27,400 -624 Descending Indianapolis Center
Wed 05:34:02 PM 38.3286 -82.3625 268° West 255 293 26,700 -672 Descending Indianapolis Center
Wed 05:35:04 PM 38.3286 -82.4550 270° West 256 295 26,000 -726 Descending Indianapolis Center
Wed 05:36:06 PM 38.3250 -82.5544 267° West 268 308 25,200 -871 Descending Indianapolis Center
Wed 05:37:08 PM 38.3203 -82.6656 267° West 271 312 24,200 -871 Descending Indianapolis Center
Wed 05:38:10 PM 38.3114 -82.7617 263° West 271 312 23,400 -823 Descending Indianapolis Center
Wed 05:39:12 PM 38.3125 -82.8581 271° West 271 312 22,500 -871 Descending Indianapolis Center
Wed 05:40:14 PM 38.3136 -82.9553 271° West 272 313 21,600 -823 Descending Indianapolis Center
Wed 05:41:16 PM 38.3075 -83.0514 265° West 272 313 20,800 -871 Descending Indianapolis Center
Wed 05:42:18 PM 38.3033 -83.1636 267° West 272 313 19,800 -871 Descending Indianapolis Center
Wed 05:43:20 PM 38.2972 -83.2583 265° West 272 313 19,000 -816 Descending Indianapolis Center
Wed 05:44:23 PM 38.2919 -83.3567 266° West 272 313 18,100 -1,056 Descending Indianapolis Center
Wed 05:45:25 PM 38.2867 -83.4503 266° West 272 313 16,800 -1,210 Descending Indianapolis Center
Wed 05:46:27 PM 38.2808 -83.5481 266° West 272 313 15,600 -1,355 Descending Indianapolis Center
Wed 05:47:29 PM 38.2744 -83.6603 266° West 272 313 14,000 -1,500 Descending Indianapolis Center
Wed 05:48:31 PM 38.2703 -83.7569 267° West 272 313 12,500 -1,403 Descending Indianapolis Center
Wed 05:49:33 PM 38.2658 -83.8542 267° West 273 314 11,100 -871 Descending Indianapolis Center
Wed 05:50:35 PM 38.2603 -83.9439 266° West 265 305 10,700 -823 Descending Indianapolis Center
Wed 05:51:37 PM 38.2633 -84.0306 273° West 253 291 9,400 -1,548 Descending Indianapolis Center
Wed 05:52:39 PM 38.2553 -84.1294 264° West 241 277 7,500 -1,790 Descending Indianapolis Center
Wed 05:53:41 PM 38.2494 -84.2128 265° West 241 277 5,700 -1,597 Descending Indianapolis Center
Wed 05:54:43 PM 38.2533 -84.2947 273° West 237 273 4,200 -1,392 Descending Indianapolis Center
Wed 05:55:46 PM 38.2592 -84.3647 276° West 218 251 2,800 -768 Descending Indianapolis Center
Wed 05:56:48 PM 38.2631 -84.4306 274° West 214 246 2,600 -194 Descending Indianapolis Center
Wed 05:58:00 PM 38.2333 -84.4333 270° West  Level FlightAware Approximate
Wed 06:05:00 PM 38.2344 -84.4347 270° West  Level Estimated
Wed 06:06:00 PM 38.2333 -84.4333 270° West  Level FlightAware Approximate

Login

Don't have an account? Register now (free) for customized features, flight alerts, and more!